createdAt,value
2023-04-15T00:02:18.653Z,56.79
2023-04-15T00:04:48.799Z,56.67
2023-04-15T00:07:18.620Z,56.77
2023-04-15T00:09:48.324Z,56.64
2023-04-15T00:12:18.018Z,56.56
2023-04-15T00:14:51.233Z,56.65
2023-04-15T00:17:21.198Z,56.65
2023-04-15T00:19:50.921Z,56.64
2023-04-15T00:22:20.965Z,56.62
2023-04-15T00:24:50.937Z,56.67
2023-04-15T00:27:20.601Z,56.69
2023-04-15T00:29:52.861Z,56.86
2023-04-15T00:32:23.738Z,56.74
2023-04-15T00:34:53.916Z,56.95
2023-04-15T00:37:24.022Z,56.93
2023-04-15T00:39:54.716Z,56.85
2023-04-15T00:42:24.563Z,56.96
2023-04-15T00:44:57.403Z,57.07
2023-04-15T00:47:27.334Z,57.03
2023-04-15T00:49:57.016Z,57.08
2023-04-15T00:52:26.794Z,57.24
2023-04-15T00:54:56.533Z,57.30
2023-04-15T00:57:26.284Z,57.42
2023-04-15T00:59:59.177Z,57.32
2023-04-15T01:02:29.164Z,57.41
2023-04-15T01:04:59.620Z,57.43
2023-04-15T01:07:29.371Z,57.48
2023-04-15T01:09:59.183Z,57.72
2023-04-15T01:12:30.079Z,57.75
2023-04-15T01:15:02.450Z,57.98
2023-04-15T01:17:32.912Z,57.96
2023-04-15T01:20:02.723Z,57.81
2023-04-15T01:22:33.502Z,57.89
2023-04-15T01:25:05.037Z,58.19
2023-04-15T01:27:38.168Z,58.15
2023-04-15T01:30:09.690Z,58.23
2023-04-15T01:32:39.789Z,58.46
2023-04-15T01:35:10.141Z,58.39
2023-04-15T01:37:39.991Z,58.58
2023-04-15T01:40:11.196Z,58.67
2023-04-15T01:42:43.486Z,58.73
2023-04-15T01:45:14.200Z,58.68
2023-04-15T01:47:43.963Z,58.87
2023-04-15T01:50:14.078Z,58.84
2023-04-15T01:52:43.976Z,58.94
2023-04-15T01:55:14.251Z,59.00
2023-04-15T01:57:46.716Z,59.20
2023-04-15T02:00:17.694Z,59.04
2023-04-15T02:02:47.611Z,59.15
2023-04-15T02:05:17.508Z,59.43
2023-04-15T02:07:51.048Z,59.41
2023-04-15T02:10:21.115Z,59.46
2023-04-15T02:12:54.081Z,59.53
2023-04-15T02:15:23.823Z,59.81
2023-04-15T02:17:55.500Z,59.83
2023-04-15T02:20:25.583Z,60.03
2023-04-15T02:22:55.306Z,59.84
2023-04-15T02:25:24.981Z,59.94
2023-04-15T02:27:57.282Z,60.10
2023-04-15T02:30:27.338Z,60.02
2023-04-15T02:32:57.065Z,60.27
2023-04-15T02:35:28.279Z,60.22
2023-04-15T02:37:58.657Z,60.45
2023-04-15T02:40:29.133Z,60.36
2023-04-15T02:43:01.575Z,60.64
2023-04-15T02:45:31.829Z,60.70
2023-04-15T02:48:06.632Z,60.94
2023-04-15T02:50:37.972Z,61.24
2023-04-15T02:53:07.708Z,61.54
2023-04-15T02:55:37.529Z,61.86
2023-04-15T02:58:10.124Z,61.86
2023-04-15T03:00:40.193Z,62.12
2023-04-15T03:03:11.040Z,62.30
2023-04-15T03:05:41.760Z,62.38
2023-04-15T03:08:11.563Z,62.59
2023-04-15T03:10:41.345Z,62.48
2023-04-15T03:13:13.644Z,62.82
2023-04-15T03:15:43.808Z,62.65
2023-04-15T03:18:13.728Z,62.89
2023-04-15T03:20:44.131Z,62.93
2023-04-15T03:23:13.979Z,63.10
2023-04-15T03:25:43.695Z,63.22
2023-04-15T03:28:15.979Z,63.53
2023-04-15T03:30:45.882Z,63.42
2023-04-15T03:33:16.026Z,63.58
2023-04-15T03:35:45.797Z,63.98
2023-04-15T03:38:15.835Z,64.09
2023-04-15T03:40:45.792Z,64.27
2023-04-15T03:43:18.051Z,64.57
2023-04-15T03:45:47.723Z,64.65
2023-04-15T03:48:18.365Z,64.96
2023-04-15T03:50:48.534Z,64.97
2023-04-15T03:53:18.260Z,65.04
2023-04-15T03:55:47.961Z,65.11
2023-04-15T03:58:20.770Z,65.59
2023-04-15T04:00:50.583Z,65.59
2023-04-15T04:03:20.608Z,66.00
2023-04-15T04:05:50.616Z,65.92
2023-04-15T04:08:21.844Z,65.99
2023-04-15T04:10:51.537Z,66.13
2023-04-15T04:13:23.815Z,66.32
2023-04-15T04:15:53.586Z,66.48
2023-04-15T04:18:23.466Z,66.38
2023-04-15T04:20:53.184Z,66.64
2023-04-15T04:23:22.882Z,67.04
2023-04-15T04:25:52.822Z,67.25
2023-04-15T04:28:25.137Z,67.26
2023-04-15T04:30:54.887Z,67.33
2023-04-15T04:33:24.615Z,67.42
2023-04-15T04:35:54.325Z,67.69
2023-04-15T04:38:24.016Z,67.75
2023-04-15T04:40:53.818Z,67.88
2023-04-15T04:43:26.251Z,67.93
2023-04-15T04:45:56.066Z,67.93
2023-04-15T04:48:26.120Z,68.06
2023-04-15T04:50:56.153Z,68.33
2023-04-15T04:53:25.902Z,68.38
2023-04-15T04:55:55.646Z,68.47
2023-04-15T04:58:27.992Z,68.61
2023-04-15T05:00:57.804Z,68.64
2023-04-15T05:03:27.651Z,68.55
2023-04-15T05:05:57.410Z,68.66
2023-04-15T05:08:27.129Z,68.90
2023-04-15T05:10:56.837Z,68.97
2023-04-15T05:13:30.223Z,69.06
2023-04-15T05:16:00.147Z,68.88
2023-04-15T05:18:30.025Z,69.35
2023-04-15T05:20:59.958Z,69.29
2023-04-15T05:23:29.742Z,69.41
2023-04-15T05:25:59.493Z,69.41
2023-04-15T05:28:31.971Z,69.26
2023-04-15T05:31:01.851Z,69.44
2023-04-15T05:33:31.563Z,69.24
2023-04-15T05:36:01.409Z,69.32
2023-04-15T05:38:31.259Z,69.29
2023-04-15T05:41:01.065Z,69.32
2023-04-15T05:43:33.341Z,69.32
2023-04-15T05:46:03.109Z,69.04
2023-04-15T05:48:32.848Z,68.46
2023-04-15T05:51:02.577Z,68.33
2023-04-15T05:53:32.258Z,67.76
2023-04-15T05:56:01.971Z,67.68
2023-04-15T05:58:34.302Z,67.20
2023-04-15T06:01:04.018Z,66.89
2023-04-15T06:03:33.898Z,66.74
2023-04-15T06:06:03.840Z,66.37
2023-04-15T06:08:34.024Z,65.79
2023-04-15T06:11:03.818Z,65.58
2023-04-15T06:13:36.088Z,65.10
2023-04-15T06:16:05.869Z,64.57
2023-04-15T06:18:35.572Z,64.15
2023-04-15T06:21:05.281Z,63.70
2023-04-15T06:23:37.597Z,63.50
2023-04-15T06:26:07.424Z,63.34
2023-04-15T06:28:39.717Z,63.09
2023-04-15T06:31:09.469Z,62.59
2023-04-15T06:33:39.744Z,62.11
2023-04-15T06:36:10.091Z,61.46
2023-04-15T06:38:39.994Z,60.56
2023-04-15T06:41:09.955Z,59.46
2023-04-15T06:43:42.525Z,58.77
2023-04-15T06:46:12.552Z,57.67
2023-04-15T06:48:42.613Z,56.70
2023-04-15T06:51:13.064Z,55.65
2023-04-15T06:53:44.023Z,54.53
2023-04-15T06:56:13.769Z,53.50
2023-04-15T06:58:46.008Z,52.44
2023-04-15T07:01:16.788Z,51.57
2023-04-15T07:03:46.628Z,50.72
2023-04-15T07:06:16.338Z,49.65
2023-04-15T07:08:45.993Z,49.65
2023-04-15T07:11:15.680Z,49.34
2023-04-15T07:13:47.961Z,49.56
2023-04-15T07:16:17.746Z,49.73
2023-04-15T07:18:47.483Z,50.15
2023-04-15T07:21:17.371Z,50.17
2023-04-15T07:23:47.528Z,50.08
2023-04-15T07:26:17.242Z,50.25
2023-04-15T07:28:49.750Z,50.56
2023-04-15T07:31:20.071Z,50.85
2023-04-15T07:33:49.847Z,51.34
2023-04-15T07:36:20.010Z,51.28
2023-04-15T07:38:49.682Z,51.15
2023-04-15T07:41:19.484Z,51.48
2023-04-15T07:43:51.985Z,51.41
2023-04-15T07:46:21.734Z,51.59
2023-04-15T07:48:51.460Z,51.58
2023-04-15T07:51:21.188Z,51.71
2023-04-15T07:53:51.295Z,51.81
2023-04-15T07:56:21.033Z,51.38
2023-04-15T07:58:53.344Z,51.29
2023-04-15T08:01:23.090Z,51.36
2023-04-15T08:03:53.365Z,50.98
2023-04-15T08:06:23.364Z,51.21
2023-04-15T08:08:53.080Z,51.04
2023-04-15T08:11:23.251Z,50.74
2023-04-15T08:13:55.572Z,50.66
2023-04-15T08:16:28.016Z,50.78
2023-04-15T08:18:58.985Z,50.44
2023-04-15T08:21:31.076Z,49.80
2023-04-15T08:24:01.850Z,49.52
2023-04-15T08:26:31.583Z,49.58
2023-04-15T08:29:04.151Z,49.87
2023-04-15T08:31:35.240Z,50.11
2023-04-15T08:34:04.982Z,50.16
2023-04-15T08:36:35.083Z,50.59
2023-04-15T08:39:05.101Z,50.43
2023-04-15T08:41:43.438Z,50.03
2023-04-15T08:44:16.986Z,50.16
2023-04-15T08:46:47.705Z,50.13
2023-04-15T08:49:18.706Z,50.26
2023-04-15T08:51:49.143Z,49.46
2023-04-15T08:54:18.948Z,48.15
2023-04-15T08:56:49.101Z,47.32
2023-04-15T08:59:22.034Z,45.89
2023-04-15T09:01:52.738Z,45.97
2023-04-15T09:04:22.454Z,46.49
2023-04-15T09:06:52.376Z,45.96
2023-04-15T09:09:22.785Z,45.35
2023-04-15T09:11:52.846Z,45.36
2023-04-15T09:14:25.477Z,45.86
2023-04-15T09:17:03.066Z,45.48
2023-04-15T09:19:33.768Z,45.25
2023-04-15T09:22:03.486Z,45.25
2023-04-15T09:24:41.062Z,45.91
2023-04-15T09:27:11.294Z,46.27
2023-04-15T09:29:44.264Z,45.84
2023-04-15T09:32:15.712Z,45.07
2023-04-15T09:34:46.101Z,43.75
2023-04-15T09:37:31.529Z,43.25
2023-04-15T09:40:01.915Z,42.84
2023-04-15T09:42:32.668Z,42.24
2023-04-15T09:45:14.293Z,41.19
2023-04-15T09:47:44.035Z,40.80
2023-04-15T09:50:14.816Z,39.83
2023-04-15T09:52:45.749Z,39.80
2023-04-15T09:55:16.229Z,40.34
2023-04-15T09:57:47.406Z,40.75
2023-04-15T10:00:20.270Z,41.08
2023-04-15T10:02:50.178Z,41.06
2023-04-15T10:05:20.702Z,41.92
2023-04-15T10:07:50.492Z,43.06
2023-04-15T10:10:20.810Z,43.10
2023-04-15T10:12:51.083Z,43.68
2023-04-15T10:15:24.128Z,44.36
2023-04-15T10:17:54.084Z,44.85
2023-04-15T10:20:24.037Z,45.24
2023-04-15T10:22:54.417Z,45.92
2023-04-15T10:25:24.643Z,46.01
2023-04-15T10:27:54.952Z,46.34
2023-04-15T10:30:27.321Z,46.40
2023-04-15T10:32:57.245Z,47.28
2023-04-15T10:35:27.293Z,47.77
2023-04-15T10:37:56.987Z,47.70
2023-04-15T10:40:31.814Z,47.99
2023-04-15T10:43:02.680Z,48.43
2023-04-15T10:45:36.952Z,48.99
2023-04-15T10:48:08.111Z,49.24
2023-04-15T10:50:38.022Z,50.16
2023-04-15T10:53:07.924Z,50.39
2023-04-15T10:55:38.054Z,50.77
2023-04-15T10:58:07.891Z,50.57
2023-04-15T11:00:40.675Z,51.16
2023-04-15T11:03:12.231Z,51.21
2023-04-15T11:05:56.054Z,51.01
2023-04-15T11:08:59.055Z,50.81
2023-04-15T11:12:09.025Z,50.55
2023-04-15T11:14:44.302Z,50.23
2023-04-15T11:17:16.629Z,50.14
2023-04-15T11:19:47.090Z,50.55
2023-04-15T11:22:16.782Z,50.69
2023-04-15T11:24:53.218Z,50.90
2023-04-15T11:27:26.335Z,50.93
2023-04-15T11:29:56.022Z,51.09
2023-04-15T11:32:28.353Z,51.54
2023-04-15T11:34:58.639Z,51.77
2023-04-15T11:37:32.395Z,52.02
2023-04-15T11:40:02.164Z,52.18
2023-04-15T11:42:42.773Z,52.13
2023-04-15T11:45:17.937Z,52.76
2023-04-15T11:47:50.275Z,53.00
2023-04-15T11:50:21.309Z,53.38
2023-04-15T11:52:57.991Z,53.64
2023-04-15T11:55:28.269Z,53.57
2023-04-15T11:58:10.985Z,53.76
2023-04-15T12:00:42.724Z,53.51
2023-04-15T12:03:22.051Z,53.44
2023-04-15T12:06:15.145Z,53.85
2023-04-15T12:09:01.459Z,53.96
2023-04-15T12:11:33.764Z,54.35
2023-04-15T12:14:08.362Z,54.78
2023-04-15T12:16:48.505Z,55.02
2023-04-15T12:19:26.325Z,55.69
2023-04-15T12:22:00.485Z,55.86
2023-04-15T12:24:30.611Z,56.04
2023-04-15T12:27:01.950Z,56.51
2023-04-15T12:29:32.766Z,56.77
2023-04-15T12:32:08.363Z,57.38
2023-04-15T12:34:41.966Z,57.67
2023-04-15T12:37:12.504Z,58.04
2023-04-15T12:39:43.934Z,58.64
2023-04-15T12:42:14.008Z,58.91
2023-04-15T12:44:44.003Z,59.11
2023-04-15T12:47:16.020Z,59.52
2023-04-15T12:49:49.758Z,59.67
2023-04-15T12:52:19.456Z,59.90
2023-04-15T12:54:49.135Z,60.12
2023-04-15T12:57:18.844Z,60.17
2023-04-15T12:59:48.520Z,60.38
2023-04-15T13:02:18.922Z,60.56
2023-04-15T13:04:51.404Z,60.53
2023-04-15T13:07:21.181Z,60.85
2023-04-15T13:09:50.908Z,60.79
2023-04-15T13:12:20.588Z,60.68
2023-04-15T13:14:50.274Z,60.90
2023-04-15T13:17:21.480Z,61.10
2023-04-15T13:19:53.803Z,61.18
2023-04-15T13:22:23.530Z,61.49
2023-04-15T13:24:53.255Z,61.42
2023-04-15T13:27:23.425Z,61.77
2023-04-15T13:29:53.181Z,61.92
2023-04-15T13:32:22.924Z,62.09
2023-04-15T13:34:56.376Z,62.00
2023-04-15T13:37:29.569Z,62.17
2023-04-15T13:39:59.596Z,62.27
2023-04-15T13:42:29.854Z,62.37
2023-04-15T13:44:59.587Z,62.41
2023-04-15T13:47:29.418Z,62.49
2023-04-15T13:50:01.779Z,62.39
2023-04-15T13:52:31.467Z,62.25
2023-04-15T13:55:07.281Z,61.76
2023-04-15T13:57:48.635Z,61.40
2023-04-15T14:00:19.007Z,61.03
2023-04-15T14:02:48.960Z,60.82
2023-04-15T14:05:21.397Z,60.83
2023-04-15T14:07:51.104Z,60.77
2023-04-15T14:10:21.077Z,60.67
2023-04-15T14:12:50.879Z,60.61
2023-04-15T14:15:20.602Z,60.68
2023-04-15T14:17:50.427Z,61.55
2023-04-15T14:20:22.937Z,61.46
2023-04-15T14:22:52.814Z,61.43
2023-04-15T14:25:30.847Z,61.79
2023-04-15T14:28:03.679Z,62.24
2023-04-15T14:30:33.552Z,62.52
2023-04-15T14:33:03.931Z,62.95
2023-04-15T14:35:36.491Z,63.35
2023-04-15T14:38:06.332Z,63.74
2023-04-15T14:40:36.553Z,64.59
2023-04-15T14:43:06.399Z,65.16
2023-04-15T14:45:36.504Z,66.11
2023-04-15T14:48:06.730Z,66.73
2023-04-15T14:50:39.146Z,67.47
2023-04-15T14:53:08.849Z,68.28
2023-04-15T14:55:38.573Z,68.96
2023-04-15T14:58:09.497Z,69.14
2023-04-15T15:00:42.035Z,69.50
2023-04-15T15:03:13.726Z,69.32
2023-04-15T15:05:47.922Z,69.27
2023-04-15T15:08:17.496Z,69.41
2023-04-15T15:10:48.653Z,69.35
2023-04-15T15:13:19.859Z,69.90
2023-04-15T15:15:49.946Z,70.28
2023-04-15T15:18:20.121Z,70.71
2023-04-15T15:20:52.573Z,71.22
2023-04-15T15:23:22.311Z,71.80
2023-04-15T15:25:51.981Z,72.16
2023-04-15T15:28:21.982Z,72.62
2023-04-15T15:30:51.729Z,73.63
2023-04-15T15:33:21.685Z,74.01
2023-04-15T15:35:54.090Z,74.26
2023-04-15T15:38:23.946Z,74.25
2023-04-15T15:40:53.627Z,74.71
2023-04-15T15:43:23.317Z,74.85
2023-04-15T15:45:55.613Z,74.93
2023-04-15T15:48:25.900Z,75.44
2023-04-15T15:50:58.478Z,75.71
2023-04-15T15:53:28.210Z,75.83
2023-04-15T15:55:57.924Z,75.64
2023-04-15T15:58:27.843Z,75.67
2023-04-15T16:00:58.753Z,75.92
2023-04-15T16:03:29.575Z,75.96
2023-04-15T16:06:01.906Z,76.28
2023-04-15T16:08:31.623Z,76.28
2023-04-15T16:11:01.422Z,76.17
2023-04-15T16:13:31.295Z,76.23
2023-04-15T16:16:01.004Z,76.02
2023-04-15T16:18:30.742Z,76.21
2023-04-15T16:21:04.006Z,76.00
2023-04-15T16:23:34.028Z,76.01
2023-04-15T16:26:03.761Z,76.04
2023-04-15T16:28:33.572Z,75.71
2023-04-15T16:31:03.252Z,75.60
2023-04-15T16:33:32.974Z,75.55
2023-04-15T16:36:05.259Z,75.36
2023-04-15T16:38:34.991Z,75.56
2023-04-15T16:41:04.867Z,75.16
2023-04-15T16:43:34.621Z,75.28
2023-04-15T16:46:04.284Z,75.33
2023-04-15T16:48:34.043Z,75.18
2023-04-15T16:51:06.350Z,75.51
2023-04-15T16:53:36.107Z,75.21
2023-04-15T16:56:05.789Z,75.29
2023-04-15T16:58:35.566Z,75.14
2023-04-15T17:01:05.477Z,75.17
2023-04-15T17:03:35.498Z,75.18
2023-04-15T17:06:07.980Z,75.35
2023-04-15T17:08:37.687Z,75.50
2023-04-15T17:11:07.404Z,75.53
2023-04-15T17:13:45.025Z,75.86
2023-04-15T17:16:14.763Z,75.96
2023-04-15T17:18:44.897Z,76.30
2023-04-15T17:21:15.361Z,76.65
2023-04-15T17:23:45.063Z,76.45
2023-04-15T17:26:14.827Z,76.89
2023-04-15T17:28:47.147Z,77.17
2023-04-15T17:31:16.903Z,77.25
2023-04-15T17:34:00.150Z,77.06
2023-04-15T17:36:37.337Z,77.21
2023-04-15T17:39:07.596Z,77.23
2023-04-15T17:41:37.476Z,77.22
2023-04-15T17:44:09.837Z,77.13
2023-04-15T17:46:39.638Z,77.16
2023-04-15T17:49:09.532Z,77.16
2023-04-15T17:51:39.221Z,77.05
2023-04-15T17:54:11.450Z,76.97
2023-04-15T17:56:41.252Z,77.39
2023-04-15T17:59:13.607Z,77.35
2023-04-15T18:01:43.559Z,77.37
2023-04-15T18:04:13.445Z,77.85
2023-04-15T18:06:43.426Z,78.04
2023-04-15T18:09:13.145Z,78.27
2023-04-15T18:11:45.152Z,78.48
2023-04-15T18:14:26.979Z,78.38
2023-04-15T18:17:03.192Z,78.55
2023-04-15T18:19:33.256Z,78.74
2023-04-15T18:22:04.169Z,78.95
2023-04-15T18:24:33.925Z,79.08
2023-04-15T18:27:03.919Z,79.50
2023-04-15T18:29:37.106Z,79.75
2023-04-15T18:32:06.907Z,80.00
2023-04-15T18:34:36.636Z,80.32
2023-04-15T18:37:06.514Z,80.53
2023-04-15T18:39:36.234Z,80.74
2023-04-15T18:42:06.189Z,81.04
2023-04-15T18:44:38.558Z,81.23
2023-04-15T18:47:08.268Z,81.20
2023-04-15T18:49:38.047Z,81.29
2023-04-15T18:52:07.841Z,81.56
2023-04-15T18:54:37.532Z,81.37
2023-04-15T18:57:07.265Z,81.62
2023-04-15T18:59:39.837Z,81.50
2023-04-15T19:02:09.559Z,81.79
2023-04-15T19:04:39.375Z,82.26
2023-04-15T19:07:09.863Z,82.62
2023-04-15T19:09:39.774Z,82.86
2023-04-15T19:12:09.545Z,82.85
2023-04-15T19:14:41.816Z,83.12
2023-04-15T19:17:11.532Z,83.34
2023-04-15T19:19:41.336Z,83.23
2023-04-15T19:22:11.386Z,83.20
2023-04-15T19:24:41.081Z,83.57
2023-04-15T19:27:10.769Z,83.63
2023-04-15T19:29:43.007Z,83.69
2023-04-15T19:32:14.193Z,83.87
2023-04-15T19:34:43.882Z,83.87
2023-04-15T19:37:14.831Z,83.95
2023-04-15T19:39:44.505Z,84.10
2023-04-15T19:42:14.215Z,84.16
2023-04-15T19:44:46.748Z,84.19
2023-04-15T19:47:16.550Z,84.24
2023-04-15T19:49:46.415Z,84.39
2023-04-15T19:52:16.235Z,84.19
2023-04-15T19:54:45.930Z,84.13
2023-04-15T19:57:15.692Z,84.56
2023-04-15T19:59:47.962Z,84.65
2023-04-15T20:02:17.714Z,84.65
2023-04-15T20:04:47.574Z,84.50
2023-04-15T20:07:17.585Z,84.66
2023-04-15T20:09:47.368Z,84.52
2023-04-15T20:12:50.161Z,84.38
2023-04-15T20:15:12.247Z,84.40
2023-04-15T20:17:42.346Z,84.38
2023-04-15T20:20:12.616Z,84.64
2023-04-15T20:22:42.494Z,84.91
2023-04-15T20:25:12.695Z,84.97
2023-04-15T20:27:42.491Z,85.04
2023-04-15T20:30:15.066Z,85.21
2023-04-15T20:32:44.796Z,85.36
2023-04-15T20:35:14.544Z,85.27
2023-04-15T20:37:46.477Z,85.36
2023-04-15T20:40:17.186Z,85.66
2023-04-15T20:42:46.901Z,85.32
2023-04-15T20:45:19.334Z,85.37
2023-04-15T20:47:49.104Z,85.32
2023-04-15T20:50:18.782Z,85.37
2023-04-15T20:52:48.513Z,85.63
2023-04-15T20:55:18.208Z,85.63
2023-04-15T20:57:48.618Z,85.90
2023-04-15T21:00:21.272Z,85.84
2023-04-15T21:02:51.148Z,86.35
2023-04-15T21:05:21.091Z,86.37
2023-04-15T21:07:50.850Z,86.56
2023-04-15T21:10:20.810Z,86.45
2023-04-15T21:12:50.651Z,86.65
2023-04-15T21:15:22.992Z,86.64
2023-04-15T21:17:52.768Z,86.64
2023-04-15T21:20:22.699Z,86.81
2023-04-15T21:22:53.088Z,86.85
2023-04-15T21:25:22.895Z,86.98
2023-04-15T21:27:52.579Z,87.45
2023-04-15T21:30:25.678Z,87.38
2023-04-15T21:32:55.917Z,87.35
2023-04-15T21:35:25.703Z,87.62
2023-04-15T21:37:55.401Z,87.59
2023-04-15T21:40:25.095Z,87.30
2023-04-15T21:42:54.822Z,87.29
2023-04-15T21:45:27.209Z,87.21
2023-04-15T21:48:07.211Z,87.52
2023-04-15T21:50:38.963Z,87.47
2023-04-15T21:53:10.743Z,87.38
2023-04-15T21:55:40.574Z,87.54
2023-04-15T21:58:10.275Z,87.60
2023-04-15T22:00:42.822Z,87.49
2023-04-15T22:03:12.647Z,87.42
2023-04-15T22:05:42.822Z,87.56
2023-04-15T22:08:12.517Z,87.51
2023-04-15T22:10:42.269Z,87.52
2023-04-15T22:13:12.990Z,87.39
2023-04-15T22:15:45.447Z,87.62
2023-04-15T22:18:15.719Z,87.67
2023-04-15T22:20:45.661Z,87.80
2023-04-15T22:23:17.517Z,87.73
2023-04-15T22:25:47.443Z,87.74
2023-04-15T22:28:17.160Z,87.76
2023-04-15T22:30:49.449Z,87.79
2023-04-15T22:33:19.165Z,87.85
2023-04-15T22:35:48.864Z,87.97
2023-04-15T22:38:18.580Z,87.91
2023-04-15T22:40:48.765Z,87.88
2023-04-15T22:43:18.444Z,87.83
2023-04-15T22:45:55.253Z,87.88
2023-04-15T22:48:25.319Z,87.81
2023-04-15T22:50:55.032Z,87.91
2023-04-15T22:53:24.766Z,87.98
2023-04-15T22:55:54.473Z,87.97
2023-04-15T22:58:24.168Z,87.92
2023-04-15T23:00:56.652Z,87.81
2023-04-15T23:03:26.456Z,87.87
2023-04-15T23:05:56.322Z,87.69
2023-04-15T23:08:26.425Z,87.89
2023-04-15T23:10:56.191Z,87.96
2023-04-15T23:13:26.051Z,87.85
2023-04-15T23:15:58.378Z,87.69
2023-04-15T23:18:28.103Z,87.81
2023-04-15T23:20:57.947Z,87.79
2023-04-15T23:23:27.744Z,87.69
2023-04-15T23:25:57.433Z,87.72
2023-04-15T23:28:27.211Z,87.69
2023-04-15T23:31:00.687Z,87.95
2023-04-15T23:33:30.545Z,88.14
2023-04-15T23:36:00.247Z,87.93
2023-04-15T23:38:29.993Z,88.00
2023-04-15T23:41:00.062Z,87.85
2023-04-15T23:43:29.735Z,87.89
2023-04-15T23:46:02.282Z,87.80
2023-04-15T23:48:31.976Z,88.18
2023-04-15T23:51:01.890Z,88.04
2023-04-15T23:53:31.855Z,87.98
2023-04-15T23:56:01.557Z,88.01
2023-04-15T23:58:33.432Z,87.78
